sensor_id;sensor_type;location;lat;lon;timestamp;pressure;altitude;pressure_sealevel;temperature;humidity
60489;BME280;46331;49.252;8.904;2024-02-26T00:00:31;97827.91;;;8.84;nan
60489;BME280;46331;49.252;8.904;2024-02-26T00:01:12;97838.47;;;8.84;nan
60489;BME280;46331;49.252;8.904;2024-02-26T00:01:53;97834.28;;;8.83;nan
60489;BME280;46331;49.252;8.904;2024-02-26T00:02:33;97837.97;;;8.82;nan
60489;BME280;46331;49.252;8.904;2024-02-26T00:03:18;97835.59;;;8.80;nan
60489;BME280;46331;49.252;8.904;2024-02-26T00:03:59;97832.94;;;8.80;nan
60489;BME280;46331;49.252;8.904;2024-02-26T00:04:40;97837.47;;;8.80;nan
60489;BME280;46331;49.252;8.904;2024-02-26T00:05:20;97838.50;;;8.79;nan
60489;BME280;46331;49.252;8.904;2024-02-26T00:06:02;97839.81;;;8.81;nan
60489;BME280;46331;49.252;8.904;2024-02-26T00:06:43;97837.72;;;8.78;nan
60489;BME280;46331;49.252;8.904;2024-02-26T00:07:23;97836.13;;;8.77;nan
60489;BME280;46331;49.252;8.904;2024-02-26T00:08:04;97828.72;;;8.79;nan
60489;BME280;46331;49.252;8.904;2024-02-26T00:08:45;97838.50;;;8.79;nan
60489;BME280;46331;49.252;8.904;2024-02-26T00:09:26;97823.97;;;8.76;nan
60489;BME280;46331;49.252;8.904;2024-02-26T00:10:07;97831.63;;;8.77;nan
60489;BME280;46331;49.252;8.904;2024-02-26T00:10:47;97837.19;;;8.76;nan
60489;BME280;46331;49.252;8.904;2024-02-26T00:11:28;97828.47;;;8.75;nan
60489;BME280;46331;49.252;8.904;2024-02-26T00:12:08;97827.69;;;8.75;nan
60489;BME280;46331;49.252;8.904;2024-02-26T00:12:49;97829.03;;;8.72;nan
60489;BME280;46331;49.252;8.904;2024-02-26T00:13:30;97829.81;;;8.73;nan
60489;BME280;46331;49.252;8.904;2024-02-26T00:14:10;97831.94;;;8.71;nan
60489;BME280;46331;49.252;8.904;2024-02-26T00:14:51;97832.72;;;8.71;nan
60489;BME280;46331;49.252;8.904;2024-02-26T00:15:33;97832.72;;;8.71;nan
60489;BME280;46331;49.252;8.904;2024-02-26T00:16:15;97833.53;;;8.72;nan
60489;BME280;46331;49.252;8.904;2024-02-26T00:16:56;97826.66;;;8.71;nan
60489;BME280;46331;49.252;8.904;2024-02-26T00:17:38;97831.94;;;8.71;nan
60489;BME280;46331;49.252;8.904;2024-02-26T00:18:19;97829.56;;;8.69;nan
60489;BME280;46331;49.252;8.904;2024-02-26T00:18:59;97829.28;;;8.71;nan
60489;BME280;46331;49.252;8.904;2024-02-26T00:19:40;97830.34;;;8.70;nan
60489;BME280;46331;49.252;8.904;2024-02-26T00:20:21;97838.28;;;8.70;nan
60489;BME280;46331;49.252;8.904;2024-02-26T00:21:02;97831.94;;;8.71;nan
60489;BME280;46331;49.252;8.904;2024-02-26T00:21:42;97833.00;;;8.70;nan
60489;BME280;46331;49.252;8.904;2024-02-26T00:22:23;97831.16;;;8.70;nan
60489;BME280;46331;49.252;8.904;2024-02-26T00:23:04;97845.16;;;8.71;nan
60489;BME280;46331;49.252;8.904;2024-02-26T00:23:44;97833.81;;;8.70;nan
60489;BME280;46331;49.252;8.904;2024-02-26T00:24:25;97829.81;;;8.73;nan
60489;BME280;46331;49.252;8.904;2024-02-26T00:25:06;97826.91;;;8.69;nan
60489;BME280;46331;49.252;8.904;2024-02-26T00:25:47;97823.50;;;8.69;nan
60489;BME280;46331;49.252;8.904;2024-02-26T00:26:28;97826.91;;;8.69;nan
60489;BME280;46331;49.252;8.904;2024-02-26T00:27:08;97825.06;;;8.70;nan
60489;BME280;46331;49.252;8.904;2024-02-26T00:27:49;97827.69;;;8.70;nan
60489;BME280;46331;49.252;8.904;2024-02-26T00:28:29;97829.28;;;8.71;nan
60489;BME280;46331;49.252;8.904;2024-02-26T00:29:10;97830.34;;;8.70;nan
60489;BME280;46331;49.252;8.904;2024-02-26T00:29:50;97834.31;;;8.72;nan
60489;BME280;46331;49.252;8.904;2024-02-26T00:30:31;97832.72;;;8.71;nan
60489;BME280;46331;49.252;8.904;2024-02-26T00:31:11;97831.38;;;8.74;nan
60489;BME280;46331;49.252;8.904;2024-02-26T00:31:52;97832.44;;;8.73;nan
60489;BME280;46331;49.252;8.904;2024-02-26T00:32:33;97832.44;;;8.73;nan
60489;BME280;46331;49.252;8.904;2024-02-26T00:33:16;97843.00;;;8.78;nan
60489;BME280;46331;49.252;8.904;2024-02-26T00:33:57;97838.28;;;8.75;nan
60489;BME280;46331;49.252;8.904;2024-02-26T00:34:38;97836.16;;;8.72;nan
60489;BME280;46331;49.252;8.904;2024-02-26T00:35:18;97834.03;;;8.74;nan
60489;BME280;46331;49.252;8.904;2024-02-26T00:36:00;97831.91;;;8.76;nan
60489;BME280;46331;49.252;8.904;2024-02-26T00:36:41;97828.47;;;8.75;nan
60489;BME280;46331;49.252;8.904;2024-02-26T00:37:21;97826.88;;;8.74;nan
60489;BME280;46331;49.252;8.904;2024-02-26T00:38:02;97825.56;;;8.77;nan
60489;BME280;46331;49.252;8.904;2024-02-26T00:38:43;97829.81;;;8.78;nan
60489;BME280;46331;49.252;8.904;2024-02-26T00:39:25;97832.72;;;8.76;nan
60489;BME280;46331;49.252;8.904;2024-02-26T00:40:06;97831.34;;;8.79;nan
60489;BME280;46331;49.252;8.904;2024-02-26T00:40:47;97825.56;;;8.77;nan
60489;BME280;46331;49.252;8.904;2024-02-26T00:41:28;97836.13;;;8.77;nan
60489;BME280;46331;49.252;8.904;2024-02-26T00:42:08;97821.88;;;8.78;nan
60489;BME280;46331;49.252;8.904;2024-02-26T00:42:49;97833.22;;;8.79;nan
60489;BME280;46331;49.252;8.904;2024-02-26T00:43:30;97833.22;;;8.79;nan
60489;BME280;46331;49.252;8.904;2024-02-26T00:44:11;97829.81;;;8.78;nan
60489;BME280;46331;49.252;8.904;2024-02-26T00:44:51;97834.00;;;8.79;nan
60489;BME280;46331;49.252;8.904;2024-02-26T00:45:32;97828.72;;;8.79;nan
60489;BME280;46331;49.252;8.904;2024-02-26T00:46:13;97832.44;;;8.78;nan
60489;BME280;46331;49.252;8.904;2024-02-26T00:46:53;97839.28;;;8.79;nan
60489;BME280;46331;49.252;8.904;2024-02-26T00:47:34;97831.63;;;8.77;nan
60489;BME280;46331;49.252;8.904;2024-02-26T00:48:14;97837.47;;;8.80;nan
60489;BME280;46331;49.252;8.904;2024-02-26T00:48:55;97829.81;;;8.78;nan
60489;BME280;46331;49.252;8.904;2024-02-26T00:49:37;97837.97;;;8.82;nan
60489;BME280;46331;49.252;8.904;2024-02-26T00:50:17;97837.72;;;8.78;nan
60489;BME280;46331;49.252;8.904;2024-02-26T00:50:58;97838.00;;;8.76;nan
60489;BME280;46331;49.252;8.904;2024-02-26T00:51:38;97835.09;;;8.78;nan
60489;BME280;46331;49.252;8.904;2024-02-26T00:52:19;97834.28;;;8.77;nan
60489;BME280;46331;49.252;8.904;2024-02-26T00:53:02;97837.97;;;8.82;nan
60489;BME280;46331;49.252;8.904;2024-02-26T00:53:43;97839.28;;;8.79;nan
60489;BME280;46331;49.252;8.904;2024-02-26T00:54:24;97838.50;;;8.79;nan
60489;BME280;46331;49.252;8.904;2024-02-26T00:55:05;97843.00;;;8.78;nan
60489;BME280;46331;49.252;8.904;2024-02-26T00:55:46;97840.38;;;8.78;nan
60489;BME280;46331;49.252;8.904;2024-02-26T00:56:27;97840.63;;;8.76;nan
60489;BME280;46331;49.252;8.904;2024-02-26T00:57:07;97839.84;;;8.76;nan
60489;BME280;46331;49.252;8.904;2024-02-26T00:57:48;97840.63;;;8.76;nan
60489;BME280;46331;49.252;8.904;2024-02-26T00:58:28;97843.00;;;8.78;nan
60489;BME280;46331;49.252;8.904;2024-02-26T00:59:09;97853.59;;;8.78;nan
60489;BME280;46331;49.252;8.904;2024-02-26T00:59:49;97849.06;;;8.79;nan
60489;BME280;46331;49.252;8.904;2024-02-26T01:00:31;97843.78;;;8.79;nan
60489;BME280;46331;49.252;8.904;2024-02-26T01:01:11;97854.38;;;8.79;nan
60489;BME280;46331;49.252;8.904;2024-02-26T01:01:52;97846.94;;;8.81;nan
60489;BME280;46331;49.252;8.904;2024-02-26T01:02:32;97855.16;;;8.79;nan
60489;BME280;46331;49.252;8.904;2024-02-26T01:03:13;97854.09;;;8.80;nan
60489;BME280;46331;49.252;8.904;2024-02-26T01:03:53;97849.34;;;8.77;nan
60489;BME280;46331;49.252;8.904;2024-02-26T01:04:34;97852.78;;;8.77;nan
60489;BME280;46331;49.252;8.904;2024-02-26T01:05:14;97847.50;;;8.77;nan
60489;BME280;46331;49.252;8.904;2024-02-26T01:05:56;97857.00;;;8.79;nan
60489;BME280;46331;49.252;8.904;2024-02-26T01:06:37;97856.22;;;8.78;nan
60489;BME280;46331;49.252;8.904;2024-02-26T01:07:18;97853.03;;;8.81;nan
60489;BME280;46331;49.252;8.904;2024-02-26T01:07:59;97853.84;;;8.76;nan
60489;BME280;46331;49.252;8.904;2024-02-26T01:08:40;97844.06;;;8.77;nan
60489;BME280;46331;49.252;8.904;2024-02-26T01:09:20;97846.44;;;8.79;nan
60489;BME280;46331;49.252;8.904;2024-02-26T01:10:02;97848.81;;;8.80;nan
60489;BME280;46331;49.252;8.904;2024-02-26T01:10:43;97851.44;;;8.80;nan
60489;BME280;46331;49.252;8.904;2024-02-26T01:11:23;97858.06;;;8.83;nan
60489;BME280;46331;49.252;8.904;2024-02-26T01:12:04;97862.25;;;8.84;nan
60489;BME280;46331;49.252;8.904;2024-02-26T01:12:45;97854.06;;;8.85;nan
60489;BME280;46331;49.252;8.904;2024-02-26T01:13:25;97854.06;;;8.85;nan
60489;BME280;46331;49.252;8.904;2024-02-26T01:14:06;97845.06;;;8.86;nan
60489;BME280;46331;49.252;8.904;2024-02-26T01:14:46;97854.34;;;8.84;nan
60489;BME280;46331;49.252;8.904;2024-02-26T01:15:27;97851.41;;;8.85;nan
60489;BME280;46331;49.252;8.904;2024-02-26T01:16:08;97852.50;;;8.84;nan
60489;BME280;46331;49.252;8.904;2024-02-26T01:16:48;97854.59;;;8.82;nan
60489;BME280;46331;49.252;8.904;2024-02-26T01:17:29;97856.75;;;8.80;nan
60489;BME280;46331;49.252;8.904;2024-02-26T01:18:11;97863.06;;;8.79;nan
60489;BME280;46331;49.252;8.904;2024-02-26T01:18:52;97865.19;;;8.82;nan
60489;BME280;46331;49.252;8.904;2024-02-26T01:19:32;97858.31;;;8.81;nan
60489;BME280;46331;49.252;8.904;2024-02-26T01:20:13;97848.81;;;8.80;nan
60489;BME280;46331;49.252;8.904;2024-02-26T01:20:54;97857.50;;;8.81;nan
60489;BME280;46331;49.252;8.904;2024-02-26T01:21:34;97856.50;;;8.76;nan
60489;BME280;46331;49.252;8.904;2024-02-26T01:22:15;97862.56;;;8.77;nan
60489;BME280;46331;49.252;8.904;2024-02-26T01:22:56;97866.25;;;8.76;nan
60489;BME280;46331;49.252;8.904;2024-02-26T01:23:36;97874.72;;;8.78;nan
60489;BME280;46331;49.252;8.904;2024-02-26T01:24:17;97867.84;;;8.77;nan
60489;BME280;46331;49.252;8.904;2024-02-26T01:24:57;97870.75;;;8.75;nan
60489;BME280;46331;49.252;8.904;2024-02-26T01:25:38;97875.28;;;8.75;nan
60489;BME280;46331;49.252;8.904;2024-02-26T01:26:19;97870.53;;;8.72;nan
60489;BME280;46331;49.252;8.904;2024-02-26T01:27:00;97868.94;;;8.71;nan
60489;BME280;46331;49.252;8.904;2024-02-26T01:27:40;97868.41;;;8.69;nan
60489;BME280;46331;49.252;8.904;2024-02-26T01:28:22;97868.41;;;8.69;nan
60489;BME280;46331;49.252;8.904;2024-02-26T01:29:03;97863.13;;;8.69;nan
60489;BME280;46331;49.252;8.904;2024-02-26T01:29:44;97858.91;;;8.68;nan
60489;BME280;46331;49.252;8.904;2024-02-26T01:30:25;97866.06;;;8.67;nan
60489;BME280;46331;49.252;8.904;2024-02-26T01:31:06;97872.38;;;8.66;nan
60489;BME280;46331;49.252;8.904;2024-02-26T01:31:48;97863.13;;;8.64;nan
60489;BME280;46331;49.252;8.904;2024-02-26T01:32:29;97858.94;;;8.63;nan
60489;BME280;46331;49.252;8.904;2024-02-26T01:33:10;97850.19;;;8.62;nan
60489;BME280;46331;49.252;8.904;2024-02-26T01:33:50;97849.41;;;8.62;nan
60489;BME280;46331;49.252;8.904;2024-02-26T01:34:31;97853.09;;;8.61;nan
60489;BME280;46331;49.252;8.904;2024-02-26T01:35:12;97856.03;;;8.59;nan
60489;BME280;46331;49.252;8.904;2024-02-26T01:35:53;97847.81;;;8.61;nan
60489;BME280;46331;49.252;8.904;2024-02-26T01:36:33;97839.38;;;8.58;nan
60489;BME280;46331;49.252;8.904;2024-02-26T01:37:14;97840.72;;;8.56;nan
60489;BME280;46331;49.252;8.904;2024-02-26T01:37:55;97851.00;;;8.57;nan
60489;BME280;46331;49.252;8.904;2024-02-26T01:38:36;97854.72;;;8.56;nan
60489;BME280;46331;49.252;8.904;2024-02-26T01:39:17;97851.28;;;8.56;nan
60489;BME280;46331;49.252;8.904;2024-02-26T01:39:57;97850.22;;;8.57;nan
60489;BME280;46331;49.252;8.904;2024-02-26T01:40:38;97850.22;;;8.57;nan
60489;BME280;46331;49.252;8.904;2024-02-26T01:41:18;97857.38;;;8.56;nan
60489;BME280;46331;49.252;8.904;2024-02-26T01:41:59;97876.38;;;8.58;nan
60489;BME280;46331;49.252;8.904;2024-02-26T01:42:40;97875.59;;;8.58;nan
60489;BME280;46331;49.252;8.904;2024-02-26T01:43:22;97882.72;;;8.57;nan
60489;BME280;46331;49.252;8.904;2024-02-26T01:44:02;97892.75;;;8.55;nan
60489;BME280;46331;49.252;8.904;2024-02-26T01:44:43;97893.03;;;8.54;nan
60489;BME280;46331;49.252;8.904;2024-02-26T01:45:24;97899.13;;;8.49;nan
60489;BME280;46331;49.252;8.904;2024-02-26T01:46:05;97896.22;;;8.51;nan
60489;BME280;46331;49.252;8.904;2024-02-26T01:46:47;97889.88;;;8.52;nan
60489;BME280;46331;49.252;8.904;2024-02-26T01:47:28;97886.72;;;8.45;nan
60489;BME280;46331;49.252;8.904;2024-02-26T01:48:09;97887.78;;;8.44;nan
60489;BME280;46331;49.252;8.904;2024-02-26T01:48:51;97891.47;;;8.43;nan
60489;BME280;46331;49.252;8.904;2024-02-26T01:49:31;97892.25;;;8.43;nan
60489;BME280;46331;49.252;8.904;2024-02-26T01:50:12;97892.78;;;8.45;nan
60489;BME280;46331;49.252;8.904;2024-02-26T01:50:52;97895.44;;;8.45;nan
60489;BME280;46331;49.252;8.904;2024-02-26T01:51:35;97894.88;;;8.48;nan
60489;BME280;46331;49.252;8.904;2024-02-26T01:52:15;97888.03;;;8.47;nan
60489;BME280;46331;49.252;8.904;2024-02-26T01:52:57;97891.72;;;8.46;nan
60489;BME280;46331;49.252;8.904;2024-02-26T01:53:38;97889.38;;;8.45;nan
60489;BME280;46331;49.252;8.904;2024-02-26T01:54:19;97893.06;;;8.44;nan
60489;BME280;46331;49.252;8.904;2024-02-26T01:54:59;97882.72;;;8.42;nan
60489;BME280;46331;49.252;8.904;2024-02-26T01:55:41;97881.94;;;8.41;nan
60489;BME280;46331;49.252;8.904;2024-02-26T01:56:22;97888.81;;;8.43;nan
60489;BME280;46331;49.252;8.904;2024-02-26T01:57:04;97882.22;;;8.45;nan
60489;BME280;46331;49.252;8.904;2024-02-26T01:57:46;97883.31;;;8.44;nan
60489;BME280;46331;49.252;8.904;2024-02-26T01:58:28;97892.78;;;8.45;nan
60489;BME280;46331;49.252;8.904;2024-02-26T01:59:10;97876.94;;;8.40;nan
60489;BME280;46331;49.252;8.904;2024-02-26T01:59:51;97877.44;;;8.42;nan
60489;BME280;46331;49.252;8.904;2024-02-26T02:00:32;97878.00;;;8.44;nan
60489;BME280;46331;49.252;8.904;2024-02-26T02:01:15;97872.19;;;8.47;nan
60489;BME280;46331;49.252;8.904;2024-02-26T02:01:58;97871.94;;;8.49;nan
60489;BME280;46331;49.252;8.904;2024-02-26T02:02:39;97866.09;;;8.47;nan
60489;BME280;46331;49.252;8.904;2024-02-26T02:03:22;97861.63;;;8.47;nan
60489;BME280;46331;49.252;8.904;2024-02-26T02:04:04;97862.69;;;8.46;nan
60489;BME280;46331;49.252;8.904;2024-02-26T02:04:45;97866.88;;;8.42;nan
60489;BME280;46331;49.252;8.904;2024-02-26T02:05:25;97871.66;;;8.45;nan
60489;BME280;46331;49.252;8.904;2024-02-26T02:06:06;97875.38;;;8.44;nan
60489;BME280;46331;49.252;8.904;2024-02-26T02:06:48;97873.50;;;8.45;nan
60489;BME280;46331;49.252;8.904;2024-02-26T02:07:29;97879.03;;;8.43;nan
60489;BME280;46331;49.252;8.904;2024-02-26T02:08:10;97878.50;;;8.36;nan
60489;BME280;46331;49.252;8.904;2024-02-26T02:08:54;97872.97;;;8.37;nan
60489;BME280;46331;49.252;8.904;2024-02-26T02:09:35;97871.41;;;8.36;nan
60489;BME280;46331;49.252;8.904;2024-02-26T02:10:16;97869.81;;;8.35;nan
60489;BME280;46331;49.252;8.904;2024-02-26T02:10:58;97870.31;;;8.37;nan
60489;BME280;46331;49.252;8.904;2024-02-26T02:11:39;97862.94;;;8.34;nan
60489;BME280;46331;49.252;8.904;2024-02-26T02:12:21;97869.53;;;8.37;nan
60489;BME280;46331;49.252;8.904;2024-02-26T02:13:01;97864.28;;;8.32;nan
60489;BME280;46331;49.252;8.904;2024-02-26T02:13:42;97864.28;;;8.32;nan
60489;BME280;46331;49.252;8.904;2024-02-26T02:14:24;97866.13;;;8.36;nan
60489;BME280;46331;49.252;8.904;2024-02-26T02:15:05;97866.38;;;8.35;nan
60489;BME280;46331;49.252;8.904;2024-02-26T02:15:46;97875.34;;;8.34;nan
60489;BME280;46331;49.252;8.904;2024-02-26T02:16:27;97863.47;;;8.31;nan
60489;BME280;46331;49.252;8.904;2024-02-26T02:17:07;97870.09;;;8.29;nan
60489;BME280;46331;49.252;8.904;2024-02-26T02:17:48;97865.88;;;8.28;nan
60489;BME280;46331;49.252;8.904;2024-02-26T02:18:29;97860.06;;;8.26;nan
60489;BME280;46331;49.252;8.904;2024-02-26T02:19:09;97857.97;;;8.22;nan
60489;BME280;46331;49.252;8.904;2024-02-26T02:19:50;97862.16;;;8.23;nan
60489;BME280;46331;49.252;8.904;2024-02-26T02:20:34;97867.72;;;8.27;nan
60489;BME280;46331;49.252;8.904;2024-02-26T02:21:15;97860.59;;;8.22;nan
60489;BME280;46331;49.252;8.904;2024-02-26T02:21:55;97859.28;;;8.20;nan
60489;BME280;46331;49.252;8.904;2024-02-26T02:22:36;97860.06;;;8.20;nan
60489;BME280;46331;49.252;8.904;2024-02-26T02:23:16;97861.13;;;8.19;nan
60489;BME280;46331;49.252;8.904;2024-02-26T02:23:57;97863.78;;;8.19;nan
60489;BME280;46331;49.252;8.904;2024-02-26T02:24:38;97860.88;;;8.16;nan
60489;BME280;46331;49.252;8.904;2024-02-26T02:25:18;97873.78;;;8.17;nan
60489;BME280;46331;49.252;8.904;2024-02-26T02:25:59;97868.78;;;8.16;nan
60489;BME280;46331;49.252;8.904;2024-02-26T02:26:40;97859.56;;;8.13;nan
60489;BME280;46331;49.252;8.904;2024-02-26T02:27:20;97853.47;;;8.13;nan
60489;BME280;46331;49.252;8.904;2024-02-26T02:28:01;97862.47;;;8.12;nan
60489;BME280;46331;49.252;8.904;2024-02-26T02:28:42;97865.38;;;8.10;nan
60489;BME280;46331;49.252;8.904;2024-02-26T02:29:23;97860.88;;;8.11;nan
60489;BME280;46331;49.252;8.904;2024-02-26T02:30:04;97867.47;;;8.08;nan
60489;BME280;46331;49.252;8.904;2024-02-26T02:30:45;97872.75;;;8.08;nan
60489;BME280;46331;49.252;8.904;2024-02-26T02:31:26;97867.47;;;8.08;nan
60489;BME280;46331;49.252;8.904;2024-02-26T02:32:06;97870.66;;;8.05;nan
60489;BME280;46331;49.252;8.904;2024-02-26T02:32:47;97860.09;;;8.05;nan
60489;BME280;46331;49.252;8.904;2024-02-26T02:33:28;97858.53;;;8.04;nan
60489;BME280;46331;49.252;8.904;2024-02-26T02:34:09;97853.22;;;8.09;nan
60489;BME280;46331;49.252;8.904;2024-02-26T02:34:50;97852.44;;;8.09;nan
60489;BME280;46331;49.252;8.904;2024-02-26T02:35:30;97857.47;;;8.10;nan
60489;BME280;46331;49.252;8.904;2024-02-26T02:36:11;97865.13;;;8.12;nan
60489;BME280;46331;49.252;8.904;2024-02-26T02:36:52;97861.66;;;8.11;nan
60489;BME280;46331;49.252;8.904;2024-02-26T02:37:33;97860.63;;;8.07;nan
60489;BME280;46331;49.252;8.904;2024-02-26T02:38:14;97863.81;;;8.04;nan
60489;BME280;46331;49.252;8.904;2024-02-26T02:38:54;97860.91;;;8.05;nan
60489;BME280;46331;49.252;8.904;2024-02-26T02:39:35;97851.13;;;8.01;nan
60489;BME280;46331;49.252;8.904;2024-02-26T02:40:15;97856.13;;;7.97;nan
60489;BME280;46331;49.252;8.904;2024-02-26T02:40:56;97855.88;;;7.94;nan
60489;BME280;46331;49.252;8.904;2024-02-26T02:41:37;97862.22;;;7.93;nan
60489;BME280;46331;49.252;8.904;2024-02-26T02:42:17;97858.78;;;7.92;nan
60489;BME280;46331;49.252;8.904;2024-02-26T02:42:58;97858.00;;;7.92;nan
60489;BME280;46331;49.252;8.904;2024-02-26T02:43:39;97862.47;;;7.91;nan
60489;BME280;46331;49.252;8.904;2024-02-26T02:44:19;97867.25;;;7.89;nan
60489;BME280;46331;49.252;8.904;2024-02-26T02:45:00;97869.63;;;7.91;nan
60489;BME280;46331;49.252;8.904;2024-02-26T02:45:40;97864.84;;;7.93;nan
60489;BME280;46331;49.252;8.904;2024-02-26T02:46:21;97871.72;;;7.94;nan
60489;BME280;46331;49.252;8.904;2024-02-26T02:47:01;97865.13;;;7.96;nan
60489;BME280;46331;49.252;8.904;2024-02-26T02:47:42;97871.97;;;7.97;nan
60489;BME280;46331;49.252;8.904;2024-02-26T02:48:22;97877.28;;;8.02;nan
60489;BME280;46331;49.252;8.904;2024-02-26T02:49:03;97862.22;;;8.03;nan
60489;BME280;46331;49.252;8.904;2024-02-26T02:49:43;97879.91;;;8.08;nan
60489;BME280;46331;49.252;8.904;2024-02-26T02:50:24;97881.50;;;8.09;nan
60489;BME280;46331;49.252;8.904;2024-02-26T02:51:05;97875.13;;;8.10;nan
60489;BME280;46331;49.252;8.904;2024-02-26T02:51:45;97882.00;;;8.11;nan
60489;BME280;46331;49.252;8.904;2024-02-26T02:52:26;97887.78;;;8.13;nan
60489;BME280;46331;49.252;8.904;2024-02-26T02:53:06;97890.44;;;8.13;nan
60489;BME280;46331;49.252;8.904;2024-02-26T02:53:47;97888.06;;;8.11;nan
60489;BME280;46331;49.252;8.904;2024-02-26T02:54:27;97885.44;;;8.11;nan
60489;BME280;46331;49.252;8.904;2024-02-26T02:55:08;97887.28;;;8.11;nan
60489;BME280;46331;49.252;8.904;2024-02-26T02:55:49;97886.50;;;8.10;nan
60489;BME280;46331;49.252;8.904;2024-02-26T02:56:29;97880.94;;;8.06;nan
60489;BME280;46331;49.252;8.904;2024-02-26T02:57:10;97884.66;;;8.05;nan
60489;BME280;46331;49.252;8.904;2024-02-26T02:57:50;97887.03;;;8.02;nan
60489;BME280;46331;49.252;8.904;2024-02-26T02:58:31;97883.59;;;8.01;nan
60489;BME280;46331;49.252;8.904;2024-02-26T02:59:12;97881.75;;;8.02;nan
60489;BME280;46331;49.252;8.904;2024-02-26T02:59:53;97886.50;;;8.00;nan
60489;BME280;46331;49.252;8.904;2024-02-26T03:00:33;97878.59;;;8.00;nan
60489;BME280;46331;49.252;8.904;2024-02-26T03:01:14;97888.09;;;8.01;nan
60489;BME280;46331;49.252;8.904;2024-02-26T03:01:54;97887.56;;;7.99;nan
60489;BME280;46331;49.252;8.904;2024-02-26T03:02:35;97887.28;;;8.00;nan
60489;BME280;46331;49.252;8.904;2024-02-26T03:03:18;97883.59;;;8.01;nan
60489;BME280;46331;49.252;8.904;2024-02-26T03:03:59;97884.38;;;8.02;nan
60489;BME280;46331;49.252;8.904;2024-02-26T03:04:39;97888.09;;;8.01;nan
60489;BME280;46331;49.252;8.904;2024-02-26T03:05:20;97887.03;;;8.02;nan
60489;BME280;46331;49.252;8.904;2024-02-26T03:06:01;97888.88;;;8.01;nan
60489;BME280;46331;49.252;8.904;2024-02-26T03:06:41;97888.09;;;8.01;nan
60489;BME280;46331;49.252;8.904;2024-02-26T03:07:22;97890.19;;;7.99;nan
60489;BME280;46331;49.252;8.904;2024-02-26T03:08:03;97888.63;;;8.03;nan
60489;BME280;46331;49.252;8.904;2024-02-26T03:08:44;97885.47;;;8.01;nan
60489;BME280;46331;49.252;8.904;2024-02-26T03:09:26;97892.84;;;7.99;nan
60489;BME280;46331;49.252;8.904;2024-02-26T03:10:07;97889.41;;;7.98;nan
60489;BME280;46331;49.252;8.904;2024-02-26T03:10:48;97890.72;;;7.96;nan
60489;BME280;46331;49.252;8.904;2024-02-26T03:11:29;97894.44;;;7.95;nan
60489;BME280;46331;49.252;8.904;2024-02-26T03:12:09;97891.25;;;7.93;nan
60489;BME280;46331;49.252;8.904;2024-02-26T03:12:50;97896.53;;;7.93;nan
60489;BME280;46331;49.252;8.904;2024-02-26T03:13:30;97895.47;;;7.88;nan
60489;BME280;46331;49.252;8.904;2024-02-26T03:14:11;97890.19;;;7.88;nan
60489;BME280;46331;49.252;8.904;2024-02-26T03:14:51;97893.38;;;7.91;nan
60489;BME280;46331;49.252;8.904;2024-02-26T03:15:34;97895.47;;;7.94;nan
60489;BME280;46331;49.252;8.904;2024-02-26T03:16:17;97902.59;;;7.98;nan
60489;BME280;46331;49.252;8.904;2024-02-26T03:16:57;97898.63;;;7.96;nan
60489;BME280;46331;49.252;8.904;2024-02-26T03:17:38;97890.19;;;7.99;nan
60489;BME280;46331;49.252;8.904;2024-02-26T03:18:18;97899.69;;;8.00;nan
60489;BME280;46331;49.252;8.904;2024-02-26T03:18:59;97886.25;;;8.01;nan
60489;BME280;46331;49.252;8.904;2024-02-26T03:19:39;97897.56;;;8.02;nan
60489;BME280;46331;49.252;8.904;2024-02-26T03:20:20;97886.50;;;8.00;nan
60489;BME280;46331;49.252;8.904;2024-02-26T03:21:00;97893.09;;;8.02;nan
60489;BME280;46331;49.252;8.904;2024-02-26T03:21:41;97897.06;;;8.00;nan
60489;BME280;46331;49.252;8.904;2024-02-26T03:22:22;97893.63;;;7.99;nan
60489;BME280;46331;49.252;8.904;2024-02-26T03:23:03;97897.56;;;8.02;nan
60489;BME280;46331;49.252;8.904;2024-02-26T03:23:43;97897.56;;;8.02;nan
60489;BME280;46331;49.252;8.904;2024-02-26T03:24:24;97896.00;;;8.01;nan
60489;BME280;46331;49.252;8.904;2024-02-26T03:25:06;97896.53;;;8.03;nan
60489;BME280;46331;49.252;8.904;2024-02-26T03:25:47;97906.03;;;8.04;nan
60489;BME280;46331;49.252;8.904;2024-02-26T03:26:28;97904.19;;;8.04;nan
60489;BME280;46331;49.252;8.904;2024-02-26T03:27:08;97903.41;;;8.04;nan
60489;BME280;46331;49.252;8.904;2024-02-26T03:27:49;97900.75;;;8.04;nan
60489;BME280;46331;49.252;8.904;2024-02-26T03:28:31;97903.41;;;8.04;nan
60489;BME280;46331;49.252;8.904;2024-02-26T03:29:13;97901.28;;;8.01;nan
60489;BME280;46331;49.252;8.904;2024-02-26T03:29:54;97900.22;;;8.02;nan
60489;BME280;46331;49.252;8.904;2024-02-26T03:30:34;97907.34;;;8.01;nan
60489;BME280;46331;49.252;8.904;2024-02-26T03:31:15;97905.22;;;8.03;nan
60489;BME280;46331;49.252;8.904;2024-02-26T03:31:56;97908.69;;;8.04;nan
60489;BME280;46331;49.252;8.904;2024-02-26T03:32:36;97904.97;;;8.00;nan
60489;BME280;46331;49.252;8.904;2024-02-26T03:33:17;97906.56;;;7.96;nan
60489;BME280;46331;49.252;8.904;2024-02-26T03:33:57;97910.78;;;8.02;nan
60489;BME280;46331;49.252;8.904;2024-02-26T03:34:38;97904.72;;;8.01;nan
60489;BME280;46331;49.252;8.904;2024-02-26T03:35:20;97910.00;;;8.01;nan
60489;BME280;46331;49.252;8.904;2024-02-26T03:36:00;97905.22;;;8.03;nan
60489;BME280;46331;49.252;8.904;2024-02-26T03:36:41;97904.44;;;8.03;nan
60489;BME280;46331;49.252;8.904;2024-02-26T03:37:22;97907.34;;;8.01;nan
60489;BME280;46331;49.252;8.904;2024-02-26T03:38:03;97912.91;;;8.00;nan
60489;BME280;46331;49.252;8.904;2024-02-26T03:38:43;97903.13;;;7.95;nan
60489;BME280;46331;49.252;8.904;2024-02-26T03:39:24;97910.81;;;7.92;nan
60489;BME280;46331;49.252;8.904;2024-02-26T03:40:05;97907.34;;;7.91;nan
60489;BME280;46331;49.252;8.904;2024-02-26T03:40:46;97910.25;;;7.84;nan
60489;BME280;46331;49.252;8.904;2024-02-26T03:41:26;97900.22;;;7.81;nan
60489;BME280;46331;49.252;8.904;2024-02-26T03:42:07;97896.00;;;7.80;nan
60489;BME280;46331;49.252;8.904;2024-02-26T03:42:48;97907.34;;;7.81;nan
60489;BME280;46331;49.252;8.904;2024-02-26T03:43:28;97904.19;;;7.79;nan
60489;BME280;46331;49.252;8.904;2024-02-26T03:44:09;97901.81;;;7.77;nan
60489;BME280;46331;49.252;8.904;2024-02-26T03:44:50;97905.50;;;7.76;nan
60489;BME280;46331;49.252;8.904;2024-02-26T03:45:30;97899.69;;;7.74;nan